sensor_id;sensor_type;location;lat;lon;timestamp;temperature;humidity
20158;DHT22;10239;56.820;24.416;2023-04-08T00:00:24;11.10;99.90
20158;DHT22;10239;56.820;24.416;2023-04-08T00:02:51;11.10;99.90
20158;DHT22;10239;56.820;24.416;2023-04-08T00:05:19;11.10;99.90
20158;DHT22;10239;56.820;24.416;2023-04-08T00:07:47;11.10;99.90
20158;DHT22;10239;56.820;24.416;2023-04-08T00:10:14;11.10;99.90
20158;DHT22;10239;56.820;24.416;2023-04-08T00:12:42;11.10;99.90
20158;DHT22;10239;56.820;24.416;2023-04-08T00:15:10;11.10;99.90
20158;DHT22;10239;56.820;24.416;2023-04-08T00:17:37;11.00;99.90
20158;DHT22;10239;56.820;24.416;2023-04-08T00:20:05;11.00;99.90
20158;DHT22;10239;56.820;24.416;2023-04-08T00:22:32;11.00;99.90
20158;DHT22;10239;56.820;24.416;2023-04-08T00:25:00;11.10;99.90
20158;DHT22;10239;56.820;24.416;2023-04-08T00:27:28;11.10;99.90
20158;DHT22;10239;56.820;24.416;2023-04-08T00:29:56;11.00;99.90
20158;DHT22;10239;56.820;24.416;2023-04-08T00:32:24;10.90;99.90
20158;DHT22;10239;56.820;24.416;2023-04-08T00:34:51;10.90;99.90
20158;DHT22;10239;56.820;24.416;2023-04-08T00:37:19;11.00;99.90
20158;DHT22;10239;56.820;24.416;2023-04-08T00:39:47;10.90;99.90
20158;DHT22;10239;56.820;24.416;2023-04-08T00:42:15;10.80;99.90
20158;DHT22;10239;56.820;24.416;2023-04-08T00:44:43;10.80;99.90
20158;DHT22;10239;56.820;24.416;2023-04-08T00:47:14;10.80;99.90
20158;DHT22;10239;56.820;24.416;2023-04-08T00:49:43;10.70;99.90
20158;DHT22;10239;56.820;24.416;2023-04-08T00:52:10;10.60;99.90
20158;DHT22;10239;56.820;24.416;2023-04-08T00:54:40;10.50;99.90
20158;DHT22;10239;56.820;24.416;2023-04-08T00:57:08;10.40;99.90
20158;DHT22;10239;56.820;24.416;2023-04-08T00:59:35;10.40;99.90
20158;DHT22;10239;56.820;24.416;2023-04-08T01:05:12;10.30;99.90
20158;DHT22;10239;56.820;24.416;2023-04-08T01:07:47;10.30;99.90
20158;DHT22;10239;56.820;24.416;2023-04-08T01:10:21;10.10;99.90
20158;DHT22;10239;56.820;24.416;2023-04-08T01:12:55;10.00;99.90
20158;DHT22;10239;56.820;24.416;2023-04-08T01:15:25;9.80;99.90
20158;DHT22;10239;56.820;24.416;2023-04-08T01:17:55;9.60;99.90
20158;DHT22;10239;56.820;24.416;2023-04-08T01:20:27;9.60;99.90
20158;DHT22;10239;56.820;24.416;2023-04-08T01:25:33;9.40;99.90
20158;DHT22;10239;56.820;24.416;2023-04-08T01:28:14;9.40;99.90
20158;DHT22;10239;56.820;24.416;2023-04-08T01:30:43;9.30;99.90
20158;DHT22;10239;56.820;24.416;2023-04-08T01:33:13;9.20;99.90
20158;DHT22;10239;56.820;24.416;2023-04-08T01:35:42;9.10;99.90
20158;DHT22;10239;56.820;24.416;2023-04-08T01:38:17;9.00;99.90
20158;DHT22;10239;56.820;24.416;2023-04-08T01:40:48;9.00;99.90
20158;DHT22;10239;56.820;24.416;2023-04-08T01:43:17;8.90;99.90
20158;DHT22;10239;56.820;24.416;2023-04-08T01:45:47;8.80;99.90
20158;DHT22;10239;56.820;24.416;2023-04-08T01:48:15;8.70;99.90
20158;DHT22;10239;56.820;24.416;2023-04-08T01:50:43;8.80;99.90
20158;DHT22;10239;56.820;24.416;2023-04-08T01:53:12;8.80;99.90
20158;DHT22;10239;56.820;24.416;2023-04-08T01:55:41;8.80;99.90
20158;DHT22;10239;56.820;24.416;2023-04-08T01:58:19;8.80;99.90
20158;DHT22;10239;56.820;24.416;2023-04-08T02:00:48;8.60;99.90
20158;DHT22;10239;56.820;24.416;2023-04-08T02:03:21;8.50;99.90
20158;DHT22;10239;56.820;24.416;2023-04-08T02:05:50;8.50;99.90
20158;DHT22;10239;56.820;24.416;2023-04-08T02:08:18;8.60;99.90
20158;DHT22;10239;56.820;24.416;2023-04-08T02:10:46;8.60;99.90
20158;DHT22;10239;56.820;24.416;2023-04-08T02:13:14;8.50;99.90
20158;DHT22;10239;56.820;24.416;2023-04-08T02:15:46;8.50;99.90
20158;DHT22;10239;56.820;24.416;2023-04-08T02:18:24;8.60;99.90
20158;DHT22;10239;56.820;24.416;2023-04-08T02:20:58;8.80;99.90
20158;DHT22;10239;56.820;24.416;2023-04-08T02:23:27;8.80;99.90
20158;DHT22;10239;56.820;24.416;2023-04-08T02:25:56;8.80;99.90
20158;DHT22;10239;56.820;24.416;2023-04-08T02:28:27;8.70;99.90
20158;DHT22;10239;56.820;24.416;2023-04-08T02:30:56;8.60;99.90
20158;DHT22;10239;56.820;24.416;2023-04-08T02:33:25;8.60;99.90
20158;DHT22;10239;56.820;24.416;2023-04-08T02:35:54;8.60;99.90
20158;DHT22;10239;56.820;24.416;2023-04-08T02:38:22;8.60;99.90
20158;DHT22;10239;56.820;24.416;2023-04-08T02:40:50;8.50;99.90
20158;DHT22;10239;56.820;24.416;2023-04-08T02:43:18;8.50;99.90
20158;DHT22;10239;56.820;24.416;2023-04-08T02:45:45;8.40;99.90
20158;DHT22;10239;56.820;24.416;2023-04-08T02:48:14;8.40;99.90
20158;DHT22;10239;56.820;24.416;2023-04-08T02:50:41;8.50;99.90
20158;DHT22;10239;56.820;24.416;2023-04-08T02:53:09;8.60;99.90
20158;DHT22;10239;56.820;24.416;2023-04-08T02:55:37;8.70;99.90
20158;DHT22;10239;56.820;24.416;2023-04-08T02:58:05;8.80;99.90
20158;DHT22;10239;56.820;24.416;2023-04-08T03:00:33;8.90;99.90
20158;DHT22;10239;56.820;24.416;2023-04-08T03:03:00;8.90;99.90
20158;DHT22;10239;56.820;24.416;2023-04-08T03:05:28;9.00;99.90
20158;DHT22;10239;56.820;24.416;2023-04-08T03:07:55;9.00;99.90
20158;DHT22;10239;56.820;24.416;2023-04-08T03:10:23;9.00;99.90
20158;DHT22;10239;56.820;24.416;2023-04-08T03:12:51;9.00;99.90
20158;DHT22;10239;56.820;24.416;2023-04-08T03:15:18;9.10;99.90
20158;DHT22;10239;56.820;24.416;2023-04-08T03:17:46;9.20;99.90
20158;DHT22;10239;56.820;24.416;2023-04-08T03:20:14;9.20;99.90
20158;DHT22;10239;56.820;24.416;2023-04-08T03:22:41;9.30;99.90
20158;DHT22;10239;56.820;24.416;2023-04-08T03:25:09;9.20;99.90
20158;DHT22;10239;56.820;24.416;2023-04-08T03:27:37;9.20;99.90
20158;DHT22;10239;56.820;24.416;2023-04-08T03:30:05;9.10;99.90
20158;DHT22;10239;56.820;24.416;2023-04-08T03:32:33;9.20;99.90
20158;DHT22;10239;56.820;24.416;2023-04-08T03:35:01;9.10;99.90
20158;DHT22;10239;56.820;24.416;2023-04-08T03:37:28;9.20;99.90
20158;DHT22;10239;56.820;24.416;2023-04-08T03:39:55;9.20;99.90
20158;DHT22;10239;56.820;24.416;2023-04-08T03:42:23;9.20;99.90
20158;DHT22;10239;56.820;24.416;2023-04-08T03:44:50;9.20;99.90
20158;DHT22;10239;56.820;24.416;2023-04-08T03:47:18;9.30;99.90
20158;DHT22;10239;56.820;24.416;2023-04-08T03:49:45;9.30;99.90
20158;DHT22;10239;56.820;24.416;2023-04-08T03:52:13;9.40;99.90
20158;DHT22;10239;56.820;24.416;2023-04-08T03:54:40;9.40;99.90
20158;DHT22;10239;56.820;24.416;2023-04-08T03:57:08;9.40;99.90
20158;DHT22;10239;56.820;24.416;2023-04-08T03:59:35;9.50;99.90
20158;DHT22;10239;56.820;24.416;2023-04-08T04:02:03;9.40;99.90
20158;DHT22;10239;56.820;24.416;2023-04-08T04:04:31;9.50;99.90
20158;DHT22;10239;56.820;24.416;2023-04-08T04:06:58;9.70;99.90
20158;DHT22;10239;56.820;24.416;2023-04-08T04:09:26;9.60;99.90
20158;DHT22;10239;56.820;24.416;2023-04-08T04:11:53;9.70;99.90
20158;DHT22;10239;56.820;24.416;2023-04-08T04:14:20;9.80;99.90
20158;DHT22;10239;56.820;24.416;2023-04-08T04:16:48;9.80;99.90
20158;DHT22;10239;56.820;24.416;2023-04-08T04:19:15;9.80;99.90
20158;DHT22;10239;56.820;24.416;2023-04-08T04:21:44;9.80;99.90
20158;DHT22;10239;56.820;24.416;2023-04-08T04:24:12;9.90;99.90
20158;DHT22;10239;56.820;24.416;2023-04-08T04:26:40;10.00;99.90
20158;DHT22;10239;56.820;24.416;2023-04-08T04:29:08;10.00;99.90
20158;DHT22;10239;56.820;24.416;2023-04-08T04:31:35;10.00;99.90
20158;DHT22;10239;56.820;24.416;2023-04-08T04:34:03;10.00;99.90
20158;DHT22;10239;56.820;24.416;2023-04-08T04:36:31;10.10;99.90
20158;DHT22;10239;56.820;24.416;2023-04-08T04:38:59;10.10;99.90
20158;DHT22;10239;56.820;24.416;2023-04-08T04:41:26;10.10;99.90
20158;DHT22;10239;56.820;24.416;2023-04-08T04:43:54;10.00;99.90
20158;DHT22;10239;56.820;24.416;2023-04-08T04:46:21;10.00;99.90
20158;DHT22;10239;56.820;24.416;2023-04-08T04:48:49;10.00;99.90
20158;DHT22;10239;56.820;24.416;2023-04-08T04:51:17;10.00;99.90
20158;DHT22;10239;56.820;24.416;2023-04-08T04:53:44;10.10;99.90
20158;DHT22;10239;56.820;24.416;2023-04-08T04:56:12;10.10;99.90
20158;DHT22;10239;56.820;24.416;2023-04-08T04:58:39;10.20;99.90
20158;DHT22;10239;56.820;24.416;2023-04-08T05:01:06;10.30;99.90
20158;DHT22;10239;56.820;24.416;2023-04-08T05:03:33;10.40;99.90
20158;DHT22;10239;56.820;24.416;2023-04-08T05:06:01;10.40;99.90
20158;DHT22;10239;56.820;24.416;2023-04-08T05:08:29;10.50;99.90
20158;DHT22;10239;56.820;24.416;2023-04-08T05:10:56;10.60;99.90
20158;DHT22;10239;56.820;24.416;2023-04-08T05:13:25;10.70;99.90
20158;DHT22;10239;56.820;24.416;2023-04-08T05:15:53;10.70;99.90
20158;DHT22;10239;56.820;24.416;2023-04-08T05:18:20;10.70;99.90
20158;DHT22;10239;56.820;24.416;2023-04-08T05:20:48;10.60;99.90
20158;DHT22;10239;56.820;24.416;2023-04-08T05:23:15;10.70;99.90
20158;DHT22;10239;56.820;24.416;2023-04-08T05:25:43;10.70;99.90
20158;DHT22;10239;56.820;24.416;2023-04-08T05:28:10;10.70;99.90
20158;DHT22;10239;56.820;24.416;2023-04-08T05:30:38;10.70;99.90
20158;DHT22;10239;56.820;24.416;2023-04-08T05:33:05;10.80;99.90
20158;DHT22;10239;56.820;24.416;2023-04-08T05:35:34;10.90;99.90
20158;DHT22;10239;56.820;24.416;2023-04-08T05:38:02;10.90;99.90
20158;DHT22;10239;56.820;24.416;2023-04-08T05:40:29;11.00;99.90
20158;DHT22;10239;56.820;24.416;2023-04-08T05:42:57;11.10;99.90
20158;DHT22;10239;56.820;24.416;2023-04-08T05:45:24;11.20;99.90
20158;DHT22;10239;56.820;24.416;2023-04-08T05:47:52;11.20;99.90
20158;DHT22;10239;56.820;24.416;2023-04-08T05:50:19;11.20;99.90
20158;DHT22;10239;56.820;24.416;2023-04-08T05:52:47;11.10;99.90
20158;DHT22;10239;56.820;24.416;2023-04-08T05:55:14;11.20;99.90
20158;DHT22;10239;56.820;24.416;2023-04-08T05:57:42;11.30;99.90
20158;DHT22;10239;56.820;24.416;2023-04-08T06:00:10;11.30;99.90
20158;DHT22;10239;56.820;24.416;2023-04-08T06:02:37;11.30;99.90
20158;DHT22;10239;56.820;24.416;2023-04-08T06:05:05;11.30;99.90
20158;DHT22;10239;56.820;24.416;2023-04-08T06:07:33;11.30;99.90
20158;DHT22;10239;56.820;24.416;2023-04-08T06:10:01;11.40;99.90
20158;DHT22;10239;56.820;24.416;2023-04-08T06:12:28;11.50;99.90
20158;DHT22;10239;56.820;24.416;2023-04-08T06:14:56;11.50;99.90
20158;DHT22;10239;56.820;24.416;2023-04-08T06:17:23;11.50;99.90
20158;DHT22;10239;56.820;24.416;2023-04-08T06:19:51;11.60;99.90
20158;DHT22;10239;56.820;24.416;2023-04-08T06:22:18;11.70;99.90
20158;DHT22;10239;56.820;24.416;2023-04-08T06:24:48;11.70;99.90
20158;DHT22;10239;56.820;24.416;2023-04-08T06:27:16;11.70;99.90
20158;DHT22;10239;56.820;24.416;2023-04-08T06:29:43;11.70;99.90
20158;DHT22;10239;56.820;24.416;2023-04-08T06:32:10;11.70;99.90
20158;DHT22;10239;56.820;24.416;2023-04-08T06:34:38;11.80;99.90
20158;DHT22;10239;56.820;24.416;2023-04-08T06:37:07;12.00;99.90
20158;DHT22;10239;56.820;24.416;2023-04-08T06:39:34;12.20;99.90
20158;DHT22;10239;56.820;24.416;2023-04-08T06:42:02;12.30;99.90
20158;DHT22;10239;56.820;24.416;2023-04-08T06:44:53;12.50;99.90
20158;DHT22;10239;56.820;24.416;2023-04-08T06:47:20;12.80;99.90
20158;DHT22;10239;56.820;24.416;2023-04-08T06:49:48;12.80;99.90
20158;DHT22;10239;56.820;24.416;2023-04-08T06:52:15;13.00;99.90
20158;DHT22;10239;56.820;24.416;2023-04-08T06:54:43;12.90;99.90
20158;DHT22;10239;56.820;24.416;2023-04-08T06:57:11;13.10;99.90
20158;DHT22;10239;56.820;24.416;2023-04-08T06:59:38;13.00;99.90
20158;DHT22;10239;56.820;24.416;2023-04-08T07:02:07;13.00;99.90
20158;DHT22;10239;56.820;24.416;2023-04-08T07:04:34;13.10;99.90
20158;DHT22;10239;56.820;24.416;2023-04-08T07:07:02;13.40;99.90
20158;DHT22;10239;56.820;24.416;2023-04-08T07:09:30;13.90;99.90
20158;DHT22;10239;56.820;24.416;2023-04-08T07:12:02;14.40;99.90
20158;DHT22;10239;56.820;24.416;2023-04-08T07:14:30;15.70;99.90
20158;DHT22;10239;56.820;24.416;2023-04-08T07:16:58;16.40;99.90
20158;DHT22;10239;56.820;24.416;2023-04-08T07:19:25;16.60;99.90
20158;DHT22;10239;56.820;24.416;2023-04-08T07:21:53;17.40;99.90
20158;DHT22;10239;56.820;24.416;2023-04-08T07:24:22;17.80;99.90
20158;DHT22;10239;56.820;24.416;2023-04-08T07:26:49;18.70;99.90
20158;DHT22;10239;56.820;24.416;2023-04-08T07:29:17;19.20;99.90
20158;DHT22;10239;56.820;24.416;2023-04-08T07:31:45;20.50;99.90
20158;DHT22;10239;56.820;24.416;2023-04-08T07:34:12;21.00;99.90
20158;DHT22;10239;56.820;24.416;2023-04-08T07:36:40;21.50;99.90
20158;DHT22;10239;56.820;24.416;2023-04-08T07:39:08;21.40;99.90
20158;DHT22;10239;56.820;24.416;2023-04-08T07:41:35;21.90;99.90
20158;DHT22;10239;56.820;24.416;2023-04-08T07:44:03;22.30;99.90
20158;DHT22;10239;56.820;24.416;2023-04-08T07:46:35;22.60;99.90
20158;DHT22;10239;56.820;24.416;2023-04-08T07:49:04;23.90;98.00
20158;DHT22;10239;56.820;24.416;2023-04-08T07:51:31;24.50;98.30
20158;DHT22;10239;56.820;24.416;2023-04-08T07:54:00;23.90;98.20
20158;DHT22;10239;56.820;24.416;2023-04-08T07:56:27;23.00;98.20
20158;DHT22;10239;56.820;24.416;2023-04-08T07:58:55;22.10;98.10
20158;DHT22;10239;56.820;24.416;2023-04-08T08:01:23;21.10;99.70
20158;DHT22;10239;56.820;24.416;2023-04-08T08:03:51;20.40;99.90
20158;DHT22;10239;56.820;24.416;2023-04-08T08:06:20;19.90;99.90
20158;DHT22;10239;56.820;24.416;2023-04-08T08:08:48;19.50;99.90
20158;DHT22;10239;56.820;24.416;2023-04-08T08:11:15;19.10;99.90
20158;DHT22;10239;56.820;24.416;2023-04-08T08:13:43;18.80;99.90
20158;DHT22;10239;56.820;24.416;2023-04-08T08:16:10;18.40;99.90
20158;DHT22;10239;56.820;24.416;2023-04-08T08:18:39;18.10;99.90
20158;DHT22;10239;56.820;24.416;2023-04-08T08:21:08;18.10;99.90
20158;DHT22;10239;56.820;24.416;2023-04-08T08:23:36;17.80;99.90
20158;DHT22;10239;56.820;24.416;2023-04-08T08:26:06;17.30;99.90
20158;DHT22;10239;56.820;24.416;2023-04-08T08:28:39;17.30;99.90
20158;DHT22;10239;56.820;24.416;2023-04-08T08:31:07;17.10;99.90
20158;DHT22;10239;56.820;24.416;2023-04-08T08:33:35;17.20;99.90
20158;DHT22;10239;56.820;24.416;2023-04-08T08:36:03;17.10;99.90
20158;DHT22;10239;56.820;24.416;2023-04-08T08:38:33;17.00;99.90
20158;DHT22;10239;56.820;24.416;2023-04-08T08:41:01;16.70;99.90
20158;DHT22;10239;56.820;24.416;2023-04-08T08:43:30;16.60;99.90
20158;DHT22;10239;56.820;24.416;2023-04-08T08:45:59;16.50;99.90
20158;DHT22;10239;56.820;24.416;2023-04-08T08:48:27;16.20;99.90
20158;DHT22;10239;56.820;24.416;2023-04-08T08:50:55;16.10;99.90
20158;DHT22;10239;56.820;24.416;2023-04-08T08:53:30;15.90;99.90
20158;DHT22;10239;56.820;24.416;2023-04-08T08:56:15;16.00;99.90
20158;DHT22;10239;56.820;24.416;2023-04-08T08:58:45;16.10;99.90
20158;DHT22;10239;56.820;24.416;2023-04-08T09:01:33;16.10;99.90
20158;DHT22;10239;56.820;24.416;2023-04-08T09:06:40;16.00;99.90
20158;DHT22;10239;56.820;24.416;2023-04-08T09:09:08;16.00;99.90
20158;DHT22;10239;56.820;24.416;2023-04-08T09:11:40;16.10;99.90
20158;DHT22;10239;56.820;24.416;2023-04-08T09:14:24;16.30;99.90
20158;DHT22;10239;56.820;24.416;2023-04-08T09:16:52;16.40;99.90
20158;DHT22;10239;56.820;24.416;2023-04-08T09:19:20;16.40;99.90
20158;DHT22;10239;56.820;24.416;2023-04-08T09:22:07;16.60;99.90
20158;DHT22;10239;56.820;24.416;2023-04-08T09:24:36;16.70;99.90
20158;DHT22;10239;56.820;24.416;2023-04-08T09:27:04;16.90;99.90
20158;DHT22;10239;56.820;24.416;2023-04-08T09:29:32;16.90;99.90
20158;DHT22;10239;56.820;24.416;2023-04-08T09:32:05;17.00;99.90
20158;DHT22;10239;56.820;24.416;2023-04-08T09:34:33;17.00;99.90
20158;DHT22;10239;56.820;24.416;2023-04-08T09:37:01;17.10;99.90
20158;DHT22;10239;56.820;24.416;2023-04-08T09:39:28;17.90;99.90
20158;DHT22;10239;56.820;24.416;2023-04-08T09:41:57;19.10;99.90
20158;DHT22;10239;56.820;24.416;2023-04-08T09:44:28;20.20;99.90
20158;DHT22;10239;56.820;24.416;2023-04-08T09:47:18;21.00;99.90
20158;DHT22;10239;56.820;24.416;2023-04-08T09:49:52;21.90;99.90
20158;DHT22;10239;56.820;24.416;2023-04-08T09:52:31;22.30;99.90
20158;DHT22;10239;56.820;24.416;2023-04-08T09:55:03;22.40;99.90
20158;DHT22;10239;56.820;24.416;2023-04-08T09:57:50;22.40;99.90
20158;DHT22;10239;56.820;24.416;2023-04-08T10:00:26;22.60;99.90
20158;DHT22;10239;56.820;24.416;2023-04-08T10:03:44;22.00;99.90
20158;DHT22;10239;56.820;24.416;2023-04-08T10:05:45;22.10;99.70
20158;DHT22;10239;56.820;24.416;2023-04-08T10:08:14;21.40;99.90
20158;DHT22;10239;56.820;24.416;2023-04-08T10:10:42;20.50;99.90
20158;DHT22;10239;56.820;24.416;2023-04-08T10:13:13;21.00;99.90
20158;DHT22;10239;56.820;24.416;2023-04-08T10:15:40;21.40;99.60
20158;DHT22;10239;56.820;24.416;2023-04-08T10:23:12;20.60;98.40
20158;DHT22;10239;56.820;24.416;2023-04-08T10:30:54;19.90;99.10
20158;DHT22;10239;56.820;24.416;2023-04-08T10:38:29;20.90;97.60
20158;DHT22;10239;56.820;24.416;2023-04-08T10:40:57;20.60;97.20
20158;DHT22;10239;56.820;24.416;2023-04-08T10:43:24;21.40;96.60
20158;DHT22;10239;56.820;24.416;2023-04-08T10:45:53;22.10;96.80
20158;DHT22;10239;56.820;24.416;2023-04-08T10:48:22;22.70;95.70
20158;DHT22;10239;56.820;24.416;2023-04-08T10:51:03;23.00;95.20
20158;DHT22;10239;56.820;24.416;2023-04-08T10:53:33;22.90;93.90
20158;DHT22;10239;56.820;24.416;2023-04-08T10:56:13;23.00;93.80
20158;DHT22;10239;56.820;24.416;2023-04-08T10:58:49;22.50;93.60
20158;DHT22;10239;56.820;24.416;2023-04-08T11:01:17;21.80;94.80
20158;DHT22;10239;56.820;24.416;2023-04-08T11:03:45;21.80;95.30
20158;DHT22;10239;56.820;24.416;2023-04-08T11:06:13;22.20;93.40
20158;DHT22;10239;56.820;24.416;2023-04-08T11:08:41;22.20;91.90
20158;DHT22;10239;56.820;24.416;2023-04-08T11:11:09;22.00;94.60
20158;DHT22;10239;56.820;24.416;2023-04-08T11:13:44;22.40;92.10
20158;DHT22;10239;56.820;24.416;2023-04-08T11:16:23;22.40;92.30
20158;DHT22;10239;56.820;24.416;2023-04-08T11:18:52;22.60;92.30
20158;DHT22;10239;56.820;24.416;2023-04-08T11:21:22;22.70;91.00
20158;DHT22;10239;56.820;24.416;2023-04-08T11:23:51;22.90;92.10
20158;DHT22;10239;56.820;24.416;2023-04-08T11:26:20;22.50;91.40
20158;DHT22;10239;56.820;24.416;2023-04-08T11:28:48;21.70;91.70
20158;DHT22;10239;56.820;24.416;2023-04-08T11:31:21;21.70;92.30
20158;DHT22;10239;56.820;24.416;2023-04-08T11:33:53;21.40;91.50
20158;DHT22;10239;56.820;24.416;2023-04-08T11:36:21;21.50;92.00
20158;DHT22;10239;56.820;24.416;2023-04-08T11:38:49;21.20;91.80
20158;DHT22;10239;56.820;24.416;2023-04-08T11:41:20;21.20;92.20
20158;DHT22;10239;56.820;24.416;2023-04-08T11:43:55;21.10;92.30
20158;DHT22;10239;56.820;24.416;2023-04-08T11:46:23;21.40;91.90
20158;DHT22;10239;56.820;24.416;2023-04-08T11:49:07;21.40;93.70
20158;DHT22;10239;56.820;24.416;2023-04-08T11:51:54;21.40;91.70
20158;DHT22;10239;56.820;24.416;2023-04-08T11:54:29;21.10;93.20
20158;DHT22;10239;56.820;24.416;2023-04-08T11:56:57;21.40;95.20
20158;DHT22;10239;56.820;24.416;2023-04-08T11:59:27;21.40;93.40
20158;DHT22;10239;56.820;24.416;2023-04-08T12:01:56;21.00;93.60
20158;DHT22;10239;56.820;24.416;2023-04-08T12:04:24;20.80;93.20
20158;DHT22;10239;56.820;24.416;2023-04-08T12:06:52;21.00;92.80
20158;DHT22;10239;56.820;24.416;2023-04-08T12:09:22;21.10;93.30
20158;DHT22;10239;56.820;24.416;2023-04-08T12:11:50;21.20;93.50
20158;DHT22;10239;56.820;24.416;2023-04-08T12:14:18;21.30;94.00
20158;DHT22;10239;56.820;24.416;2023-04-08T12:16:48;21.30;93.60
20158;DHT22;10239;56.820;24.416;2023-04-08T12:19:16;21.20;93.60
20158;DHT22;10239;56.820;24.416;2023-04-08T12:21:44;21.80;95.40
20158;DHT22;10239;56.820;24.416;2023-04-08T12:24:11;22.00;93.70
20158;DHT22;10239;56.820;24.416;2023-04-08T12:26:39;22.00;93.50
20158;DHT22;10239;56.820;24.416;2023-04-08T12:29:07;21.80;92.90
20158;DHT22;10239;56.820;24.416;2023-04-08T12:31:45;21.90;93.60
20158;DHT22;10239;56.820;24.416;2023-04-08T12:34:16;22.20;94.70
20158;DHT22;10239;56.820;24.416;2023-04-08T12:36:49;22.30;95.10
20158;DHT22;10239;56.820;24.416;2023-04-08T12:39:18;22.30;92.20
20158;DHT22;10239;56.820;24.416;2023-04-08T12:41:50;22.10;91.80
20158;DHT22;10239;56.820;24.416;2023-04-08T12:44:19;21.90;92.10
20158;DHT22;10239;56.820;24.416;2023-04-08T12:46:47;21.60;92.20
20158;DHT22;10239;56.820;24.416;2023-04-08T12:49:15;21.60;93.40
20158;DHT22;10239;56.820;24.416;2023-04-08T12:51:43;21.50;92.80
20158;DHT22;10239;56.820;24.416;2023-04-08T12:54:13;21.40;94.00
20158;DHT22;10239;56.820;24.416;2023-04-08T12:56:41;21.20;92.90
20158;DHT22;10239;56.820;24.416;2023-04-08T12:59:09;21.00;94.20
20158;DHT22;10239;56.820;24.416;2023-04-08T13:01:37;20.70;94.00
20158;DHT22;10239;56.820;24.416;2023-04-08T13:04:06;20.50;95.40
20158;DHT22;10239;56.820;24.416;2023-04-08T13:06:34;20.70;94.70
20158;DHT22;10239;56.820;24.416;2023-04-08T13:09:02;20.90;94.90
20158;DHT22;10239;56.820;24.416;2023-04-08T13:11:30;20.90;95.70
20158;DHT22;10239;56.820;24.416;2023-04-08T13:14:00;21.00;95.20
20158;DHT22;10239;56.820;24.416;2023-04-08T13:16:28;21.00;93.60
20158;DHT22;10239;56.820;24.416;2023-04-08T13:18:56;20.70;93.60
20158;DHT22;10239;56.820;24.416;2023-04-08T13:21:31;20.70;94.80
20158;DHT22;10239;56.820;24.416;2023-04-08T13:24:05;20.60;95.00
20158;DHT22;10239;56.820;24.416;2023-04-08T13:26:40;20.90;95.90
20158;DHT22;10239;56.820;24.416;2023-04-08T13:29:30;21.00;94.70
20158;DHT22;10239;56.820;24.416;2023-04-08T13:32:11;21.00;94.00
20158;DHT22;10239;56.820;24.416;2023-04-08T13:34:46;20.70;95.10
20158;DHT22;10239;56.820;24.416;2023-04-08T13:37:17;20.60;93.40
20158;DHT22;10239;56.820;24.416;2023-04-08T13:39:45;20.60;94.20
20158;DHT22;10239;56.820;24.416;2023-04-08T13:42:12;20.60;94.20
20158;DHT22;10239;56.820;24.416;2023-04-08T13:44:40;20.50;94.30
20158;DHT22;10239;56.820;24.416;2023-04-08T13:47:07;20.20;94.40
20158;DHT22;10239;56.820;24.416;2023-04-08T13:49:35;19.80;94.00
20158;DHT22;10239;56.820;24.416;2023-04-08T13:52:03;19.40;94.90
20158;DHT22;10239;56.820;24.416;2023-04-08T13:54:30;19.00;95.60
20158;DHT22;10239;56.820;24.416;2023-04-08T13:56:58;18.90;96.20
20158;DHT22;10239;56.820;24.416;2023-04-08T13:59:26;19.20;96.30
20158;DHT22;10239;56.820;24.416;2023-04-08T14:01:53;19.40;97.10
20158;DHT22;10239;56.820;24.416;2023-04-08T14:04:22;19.60;95.20
20158;DHT22;10239;56.820;24.416;2023-04-08T14:06:50;19.60;95.30
20158;DHT22;10239;56.820;24.416;2023-04-08T14:09:19;19.50;96.20
20158;DHT22;10239;56.820;24.416;2023-04-08T14:11:47;19.40;95.90
20158;DHT22;10239;56.820;24.416;2023-04-08T14:14:14;19.20;96.90
20158;DHT22;10239;56.820;24.416;2023-04-08T14:16:42;19.10;96.30
20158;DHT22;10239;56.820;24.416;2023-04-08T14:19:11;19.00;96.60
20158;DHT22;10239;56.820;24.416;2023-04-08T14:21:38;18.90;97.00
20158;DHT22;10239;56.820;24.416;2023-04-08T14:24:06;18.90;96.60
20158;DHT22;10239;56.820;24.416;2023-04-08T14:26:33;18.70;97.00
20158;DHT22;10239;56.820;24.416;2023-04-08T14:29:03;18.60;97.40
20158;DHT22;10239;56.820;24.416;2023-04-08T14:31:32;18.60;97.40
20158;DHT22;10239;56.820;24.416;2023-04-08T14:34:00;18.50;97.30
20158;DHT22;10239;56.820;24.416;2023-04-08T14:36:27;18.30;96.70
20158;DHT22;10239;56.820;24.416;2023-04-08T14:38:55;18.10;98.30
20158;DHT22;10239;56.820;24.416;2023-04-08T14:41:22;18.00;98.10
20158;DHT22;10239;56.820;24.416;2023-04-08T14:43:52;17.90;97.30
20158;DHT22;10239;56.820;24.416;2023-04-08T14:46:20;17.80;97.80
20158;DHT22;10239;56.820;24.416;2023-04-08T14:48:48;17.60;97.70
20158;DHT22;10239;56.820;24.416;2023-04-08T14:51:16;17.60;97.20
20158;DHT22;10239;56.820;24.416;2023-04-08T14:53:44;17.40;97.60
20158;DHT22;10239;56.820;24.416;2023-04-08T14:56:12;17.30;97.90
20158;DHT22;10239;56.820;24.416;2023-04-08T14:58:39;17.20;97.40
20158;DHT22;10239;56.820;24.416;2023-04-08T15:01:07;17.10;98.00
20158;DHT22;10239;56.820;24.416;2023-04-08T15:03:35;17.00;97.70
20158;DHT22;10239;56.820;24.416;2023-04-08T15:06:03;16.80;97.30
20158;DHT22;10239;56.820;24.416;2023-04-08T15:08:31;16.70;97.80
20158;DHT22;10239;56.820;24.416;2023-04-08T15:10:58;16.50;97.70
20158;DHT22;10239;56.820;24.416;2023-04-08T15:13:26;16.60;97.50
20158;DHT22;10239;56.820;24.416;2023-04-08T15:15:54;16.50;97.90
20158;DHT22;10239;56.820;24.416;2023-04-08T15:18:22;16.40;98.00
20158;DHT22;10239;56.820;24.416;2023-04-08T15:20:50;16.30;98.00
20158;DHT22;10239;56.820;24.416;2023-04-08T15:23:18;16.20;98.70
20158;DHT22;10239;56.820;24.416;2023-04-08T15:25:45;16.10;98.60
20158;DHT22;10239;56.820;24.416;2023-04-08T15:28:16;16.00;98.90
20158;DHT22;10239;56.820;24.416;2023-04-08T15:30:44;16.00;98.90
20158;DHT22;10239;56.820;24.416;2023-04-08T15:33:15;15.80;98.90
20158;DHT22;10239;56.820;24.416;2023-04-08T15:35:46;15.70;99.10
20158;DHT22;10239;56.820;24.416;2023-04-08T15:38:15;15.50;99.30
20158;DHT22;10239;56.820;24.416;2023-04-08T15:40:43;15.50;99.90
20158;DHT22;10239;56.820;24.416;2023-04-08T15:43:14;15.40;99.70
20158;DHT22;10239;56.820;24.416;2023-04-08T15:45:42;15.40;99.90
20158;DHT22;10239;56.820;24.416;2023-04-08T15:48:13;15.40;99.70
20158;DHT22;10239;56.820;24.416;2023-04-08T15:50:40;15.40;99.50
20158;DHT22;10239;56.820;24.416;2023-04-08T15:53:08;15.30;99.40
20158;DHT22;10239;56.820;24.416;2023-04-08T15:55:38;15.30;99.30